METAR Data
IDs: Format: Raw Decoded Include TAF

Data at: 1346 UTC 14 Dec 2019

PASY 141255Z 33015KT 7SM BKN035 01/M05 A2958 RMK AO2A SLP020 T00091047 RVRNO PNO FZRANO $
PASY 141155Z 33020G24KT 7SM SCT040 BKN049 01/M03 A2956 RMK AO2A PK WND 33027/1112 SLP011 60000 70029 4/001 T00111034 10017 20007 51036 RVRNO PNO FZRANO $
PASY 141055Z 34019G26KT 7SM SCT025 BKN035 01/M04 A2953 RMK AO2A PK WND 33031/0957 SLP001 T00131036 RVRNO PNO FZRANO $
PASY 140955Z 34023G29KT 7SM BKN036 01/M04 A2948 RMK AO2A PK WND 35031/0857 SLP984 T00141042 RVRNO PNO FZRANO $
PASY 140855Z 35025G31KT 7SM SCT023 BKN032 02/M03 A2944 RMK AO2A PK WND 35034/0755 SLP971 60000 T00151029 400221002 53047 RVRNO PNO FZRANO $
PASY 140755Z 34027G34KT 7SM BKN023 BKN038 01/M02 A2940 RMK AO2A PK WND 35036/39 SHSNB00E10 SLP958 T00141022 RVRNO PNO FZRANO $
PASY 140710Z 35027G34KT 7SM SCT022 BKN032 01/M02 A2937 RMK AO2A SHSNE10 SLP947 RVRNO PNO FZRANO $
PASY 140700Z 35029G34KT 3SM -SHSN SCT024 BKN032 02/M03 A2935 RMK AO2A SHSNB00 PRESRR SLP946 RVRNO PNO FZRANO $
PASY 140655Z 36025G30KT 7SM SCT020 BKN030 01/M03 A2934 RMK AO2A PK WND 35039/29 SLP941 T00121031 RVRNO PNO FZRANO $
PASY 140555Z COR 35030KT 7SM SCT025 BKN034 01/M03 A2930 RMK AO2A PK WND 35036/40 SLP928 4/001 T00141032 10022 21002 51034 RVRNO PNO FZRANO $ COR 0600
PASY 140455Z 34020KT 20SM SCT019 BKN040 00/M01 A2929 RMK AO2A SLP922 T00011014 RVRNO PNO FZRANO $
PASY 140355Z 35023G31KT 20SM FEW026 SCT030 BKN038 01/M04 A2925 RMK AO2A PK WND 35032/40 SLP907 T00071036 RVRNO PNO FZRANO $
PASY 140255Z 26024G29KT 20SM SCT029 BKN042 01/M04 A2921 RMK AO2A PK WND 35032/07 SLP894 T00101041 51041 RVRNO PNO FZRANO $
PASY 140155Z 35019G29KT 10SM BKN033 OVC045 01/M04 A2917 RMK AO2A PK WND 35031/0135 SLP880 T00141042 RVRNO $
PASY 140055Z 36020G30KT 350V050 10SM BKN029 OVC035 01/M03 A2914 RMK AO2A PK WND 01032/0001 LTG DSNT N SLP868 T00141029 RVRNO FZRANO $
PASY 132355Z 01027KT 350V150 10SM SCT028 BKN036 BKN049 01/01 A2909 RMK AO2A PK WND 36034/2307 SCT028 V BKN SLP852 60010 4/001 T00131010 10013 21001 51035 RVRNO $
PASY 132311Z 01025G34KT 10SM FEW015 BKN024 OVC046 01/M00 A2908 RMK AO2A PK WND 36034/2307 CIG 022V027 SLP849 RVRNO FZRANO $
PASY 132255Z 36025G35KT 10SM BKN015 BKN024 OVC046 01/01 A2906 RMK PK WND 01036/2222 SLP844 T00100009 RVRNO FZRANO $
PASY 132155Z 02029G37KT 7SM VCSHRA FEW013 OVC019 00/M00 A2903 RMK PK WND 01040/2109 VIS LWR SE SNB2130E2148 SLP883 T00001001 RVRNO FZRANO $
PASY 132148Z 02027G37KT 7SM VCSHSN BKN013 BKN020 OVC026 00/00 A2903 RMK VIS LWR S SNB2130E2148 BKN013 V SCT SLP832 RVRNO FZRANO $
PASY 132136Z 02028G38KT 7SM -SHSN FEW010 BKN017 OVC026 00/00 A2902 RMK VIS E 2 SNB2130 CIG 014V025 RVRNO FZRANO $
PASY 132055Z COR 02029G36KT 7SM SCT011 BKN016 BKN025 BKN032 OVC070 00/00 A2898 RMK PK WND 02038/2031 SNE2029 BKN016 V SCT SLP817 60010 T00020001 51025 RVRNO FZRANO $ COR 0019
PASY 132032Z 02032G38KT 3SM BR SCT007 BKN012 BKN017 00/M00 A2897 RMK SNE2029 BKN012 V SCT SLP812 RVRNO FZRANO $
PASY 132013Z 03023G34KT 1SM -SN BR BKN007 OVC013 M00/M00 A2898 RMK VIS 1V3 CIG 007V014 PRESRR SLP817 RVRNO FZRANO $
PASY 131955Z 02029G35KT 3SM -SN BR SCT006 BKN012 OVC017 00/M00 A2896 RMK PK WND 02039/1909 SCT006 V BKN SLPN810 RVRNO FZRANO $
PASY 131855Z 02030G37KT 2 1/2SM -SN BR BKN007 OVC013 00/M00 A2893 RMK CIG 006V008 SLP800 T00011000 RVRNO FZRANO $
PASY 131755Z 03027G39KT 3SM -SN BR OVC010 00/M00 A2891 RMK AO2A PK WND 03039/1743 VIS 2000V6000 SLP792 60019 4/002 T00020001 10005 20000 53002 RVRNO PNO FZRANO $
PASY 131655Z 04027G32KT 3SM -SN SCT005 OVC009 00/00 A2890 RMK AO2A PK WND 04037/1609 SLP789 T00020001 RVRNO PNO FZRANO $
PASY 131555Z 05026G31KT 3SM -SN SCT005 OVC009 00/00 A2989 RMK AO2A PK WND 06033/1521 SLP790 T00030001 RVRNO PNO FZRANO $
PASY 131455Z 06026G33KT 3SM -SN OVC008 00/M00 A2891 RMK AO2A PK WND 05033/1446 SLP791 60005 T00011001 58012 RVRNO PNO FZRANO $
PASY 131355Z 06027G32KT 3SM -SN OVC007 00/M00 A2891 RMK AO2A PK WND 08034/1257 SLP792 T00011001 RVRNO PNO FZRANO $
PASY 131255Z 06026G34KT 3SM -SN BKN007 OVC013 00/M00 A2894 RMK AO2A PK WND 07037/1225 RASNE50SNB50 SLP801 T00011001 RVRNO PNO FZRANO $
PASY 131155Z 07028G34KT 4SM -RASN BKN007 OVC017 00/M00 A2894 RMK AO2A PK WND 08038/1132 SLP802 6000 70003 4/001 T00031001 10017 20003 56030 RVRNO FZRANO $
PASY 131055Z 08031G36KT 4SM -RASN BKN007 OVC017 01/00 A2896 RMK AO2A PK WND 08038/0958 RASNB12 SLP808 T00060001 RVRNO FZRANO $
PASY 130955Z 09028G33KT 7SM BKN017 OVC029 01/M02 A2899 RMK AO2A PK WND 09038/05 SLP820 T00141017 RVRNO PNO FZRANO $
PASY 130855Z 09029G34KT 7SM BKN024 OVC030 02/M02 A2903 RMK AO2A PK WND 08036/31 SNB40E50 SL9832 60000 T00161024 400211071 58038 RVRNO PNO FZRANO $
PASY 130755Z 08030G37KT 7SM BKN024 OVC032 01/M03 A2907 RMK AO2A CIG 022V027 SLP848 T00141029 RVRNO PNO FZRANO $
PASY 130655Z 09029G34KT 7SM BKN030 OVC036 01/M04 A2911 RMK AO2A SLP860 T00111042 RVRNO PNO FZRANO $
PASY 130555Z 10026G31KT 7SM OVC030 01/M04 A2914 RMK AO2A PK WND 09035/20 SLP871 T00091044 10010 20005 57042 RVRNO PNO FZRANO $
PASY 130455Z 08030G36KT 10SM BKN030 OVC035 01/M04 A2919 RMK AO2A CIG 027V034 SLP886 T00091042 RVRNO PNO FZRANO $
PASY 130355Z 09025G35KT 10SM OVC028 01/M04 A2923 RMK AO2A CIG 026V033 SLP900 T00071043 RVRNO PNO FZRANO $
PASY 130255Z 08025G31KT 10SM OVC030 01/M04 A2925 RMK AO2A SLP908 T00051044 56056 RVRNO PNO FZRANO
PASY 130155Z 10020KT 7SM OVC034 01/M05 A2931 RMK AO2A PK WND 08026/41 SLP949 T00081055 RVRNO PNO FZRANO $